createdAt,value
2018-05-03T00:00:45.865Z,5.25
2018-05-03T00:01:51.234Z,7.12
2018-05-03T00:02:56.485Z,5.10
2018-05-03T00:04:02.317Z,9.80
2018-05-03T00:05:07.657Z,7.72
2018-05-03T00:06:12.868Z,6.22
2018-05-03T00:07:18.544Z,9.48
2018-05-03T00:08:23.786Z,8.60
2018-05-03T00:09:28.983Z,7.60
2018-05-03T00:10:34.153Z,7.37
2018-05-03T00:11:39.352Z,6.07
2018-05-03T00:12:44.480Z,8.18
2018-05-03T00:13:49.588Z,8.70
2018-05-03T00:14:54.767Z,11.80
2018-05-03T00:16:00.011Z,9.93
2018-05-03T00:17:05.291Z,14.57
2018-05-03T00:18:10.486Z,8.32
2018-05-03T00:19:15.675Z,7.55
2018-05-03T00:20:20.910Z,7.35
2018-05-03T00:21:26.052Z,17.27
2018-05-03T00:22:31.604Z,10.30
2018-05-03T00:23:36.700Z,6.73
2018-05-03T00:24:41.783Z,7.68
2018-05-03T00:25:46.945Z,9.13
2018-05-03T00:26:52.166Z,5.93
2018-05-03T00:27:57.483Z,13.52
2018-05-03T00:29:02.889Z,8.82
2018-05-03T00:30:08.115Z,10.85
2018-05-03T00:31:13.345Z,7.20
2018-05-03T00:32:18.530Z,5.60
2018-05-03T00:33:23.744Z,7.70
2018-05-03T00:34:28.938Z,8.00
2018-05-03T00:35:34.384Z,8.07
2018-05-03T00:36:39.584Z,6.10
2018-05-03T00:37:44.742Z,5.97
2018-05-03T00:38:49.943Z,11.60
2018-05-03T00:39:55.134Z,11.60
2018-05-03T00:41:00.303Z,8.60
2018-05-03T00:42:05.795Z,6.57
2018-05-03T00:43:10.980Z,6.55
2018-05-03T00:44:16.205Z,11.65
2018-05-03T00:45:21.422Z,8.10
2018-05-03T00:46:26.628Z,9.35
2018-05-03T00:47:32.510Z,7.00
2018-05-03T00:48:37.944Z,12.50
2018-05-03T00:49:43.138Z,7.15
2018-05-03T00:50:48.245Z,11.23
2018-05-03T00:51:53.341Z,11.75
2018-05-03T00:52:58.447Z,8.43
2018-05-03T00:54:03.571Z,8.05
2018-05-03T00:55:08.887Z,7.22
2018-05-03T00:56:13.997Z,7.72
2018-05-03T00:57:19.347Z,6.18
2018-05-03T00:58:24.877Z,7.30
2018-05-03T00:59:29.991Z,7.68
2018-05-03T01:00:35.263Z,10.50
2018-05-03T01:01:40.380Z,7.22
2018-05-03T01:02:45.592Z,10.65
2018-05-03T01:03:50.737Z,7.80
2018-05-03T01:04:55.818Z,7.70
2018-05-03T01:06:00.964Z,12.05
2018-05-03T01:07:06.096Z,13.40
2018-05-03T01:08:11.252Z,11.82
2018-05-03T01:09:16.334Z,8.20
2018-05-03T01:10:21.452Z,10.73
2018-05-03T01:11:26.569Z,7.57
2018-05-03T01:12:32.371Z,8.38
2018-05-03T01:13:37.447Z,7.50
2018-05-03T01:14:42.541Z,8.70
2018-05-03T01:15:47.643Z,4.93
2018-05-03T01:16:52.787Z,6.33
2018-05-03T01:17:57.868Z,7.28
2018-05-03T01:19:02.961Z,5.18
2018-05-03T01:20:08.174Z,9.90
2018-05-03T01:21:13.349Z,6.95
2018-05-03T01:22:18.623Z,6.80
2018-05-03T01:23:23.806Z,6.27
2018-05-03T01:24:28.922Z,9.82
2018-05-03T01:25:34.165Z,6.70
2018-05-03T01:26:39.253Z,6.15
2018-05-03T01:27:44.628Z,10.13
2018-05-03T01:28:49.758Z,11.57
2018-05-03T01:29:54.934Z,10.65
2018-05-03T01:31:00.100Z,6.40
2018-05-03T01:32:05.854Z,7.18
2018-05-03T01:33:11.017Z,6.32
2018-05-03T01:34:16.253Z,5.87
2018-05-03T01:35:27.849Z,12.98
2018-05-03T01:36:33.180Z,9.65
2018-05-03T01:37:38.850Z,8.27
2018-05-03T01:38:45.814Z,6.82
2018-05-03T01:39:51.192Z,8.67
2018-05-03T01:40:56.781Z,10.57
2018-05-03T01:42:02.071Z,7.70
2018-05-03T01:43:07.407Z,8.95
2018-05-03T01:44:12.720Z,8.90
2018-05-03T01:45:18.107Z,6.93
2018-05-03T01:46:23.566Z,7.18
2018-05-03T01:47:28.633Z,5.87
2018-05-03T01:48:33.732Z,9.88
2018-05-03T01:49:39.004Z,7.50
2018-05-03T01:50:44.155Z,9.27
2018-05-03T01:51:49.380Z,9.02
2018-05-03T01:52:54.528Z,6.82
2018-05-03T01:53:59.739Z,6.50
2018-05-03T01:55:04.972Z,5.07
2018-05-03T01:56:10.153Z,6.05
2018-05-03T01:57:15.323Z,7.20
2018-05-03T01:58:20.753Z,5.40
2018-05-03T01:59:25.909Z,9.25
2018-05-03T02:00:31.925Z,5.43
2018-05-03T02:01:37.253Z,4.12
2018-05-03T02:02:42.832Z,4.57
2018-05-03T02:03:48.222Z,10.57
2018-05-03T02:04:53.647Z,6.90
2018-05-03T02:05:59.088Z,11.30
2018-05-03T02:07:04.478Z,6.57
2018-05-03T02:08:10.163Z,7.07
2018-05-03T02:09:15.316Z,9.27
2018-05-03T02:10:21.024Z,6.80
2018-05-03T02:11:26.732Z,6.30
2018-05-03T02:12:32.785Z,4.78
2018-05-03T02:13:38.246Z,14.80
2018-05-03T02:14:43.782Z,8.00
2018-05-03T02:15:49.117Z,7.65
2018-05-03T02:16:54.655Z,6.03
2018-05-03T02:17:59.916Z,7.07
2018-05-03T02:19:05.311Z,8.65
2018-05-03T02:20:10.415Z,14.95
2018-05-03T02:21:15.515Z,16.12
2018-05-03T02:22:20.682Z,9.32
2018-05-03T02:23:25.796Z,6.97
2018-05-03T02:24:31.148Z,9.35
2018-05-03T02:25:36.278Z,13.35
2018-05-03T02:26:41.918Z,11.90
2018-05-03T02:27:47.083Z,11.18
2018-05-03T02:28:52.292Z,10.02
2018-05-03T02:29:57.505Z,12.13
2018-05-03T02:31:02.904Z,8.65
2018-05-03T02:32:08.086Z,10.05
2018-05-03T02:33:13.901Z,8.43
2018-05-03T02:34:19.128Z,12.05
2018-05-03T02:35:24.341Z,13.15
2018-05-03T02:36:29.642Z,7.22
2018-05-03T02:37:34.823Z,4.90
2018-05-03T02:38:39.923Z,7.20
2018-05-03T02:39:44.993Z,10.35
2018-05-03T02:40:50.136Z,10.73
2018-05-03T02:41:55.410Z,6.65
2018-05-03T02:43:00.543Z,10.02
2018-05-03T02:44:05.921Z,7.10
2018-05-03T02:45:11.209Z,5.65
2018-05-03T02:46:16.377Z,5.82
2018-05-03T02:47:21.848Z,8.10
2018-05-03T02:48:27.513Z,6.53
2018-05-03T02:49:32.785Z,10.05
2018-05-03T02:50:38.068Z,9.50
2018-05-03T02:51:44.168Z,13.88
2018-05-03T02:52:49.254Z,8.05
2018-05-03T02:53:54.362Z,12.40
2018-05-03T02:54:59.503Z,6.00
2018-05-03T02:56:04.641Z,13.10
2018-05-03T02:57:14.147Z,8.82
2018-05-03T02:58:25.423Z,9.25
2018-05-03T03:01:41.503Z,4.47
2018-05-03T03:05:03.192Z,6.10
2018-05-03T03:06:14.060Z,6.33
2018-05-03T03:07:32.447Z,6.80
2018-05-03T03:08:49.145Z,11.85
2018-05-03T03:12:02.503Z,6.37
2018-05-03T03:15:17.468Z,5.82
2018-05-03T03:18:36.550Z,8.73
2018-05-03T03:19:48.843Z,8.30
2018-05-03T03:21:03.956Z,11.23
2018-05-03T03:24:40.319Z,7.10
2018-05-03T03:26:00.321Z,7.47
2018-05-03T03:27:15.189Z,10.70
2018-05-03T03:30:32.379Z,10.88
2018-05-03T03:33:49.200Z,7.70
2018-05-03T03:34:55.831Z,12.40
2018-05-03T03:36:05.388Z,10.57
2018-05-03T03:39:22.247Z,11.50
2018-05-03T03:40:32.835Z,10.65
2018-05-03T03:41:37.981Z,17.87
2018-05-03T03:42:47.503Z,14.60
2018-05-03T03:43:57.073Z,14.83
2018-05-03T03:45:02.231Z,17.92
2018-05-03T03:46:07.357Z,17.45
2018-05-03T03:47:12.515Z,16.17
2018-05-03T03:48:17.617Z,16.92
2018-05-03T03:49:22.736Z,16.98
2018-05-03T03:50:28.016Z,14.57
2018-05-03T03:51:33.493Z,16.48
2018-05-03T03:52:38.689Z,17.17
2018-05-03T03:53:43.862Z,16.83
2018-05-03T03:54:49.076Z,17.20
2018-05-03T03:55:54.262Z,17.98
2018-05-03T03:56:59.703Z,16.87
2018-05-03T03:58:04.886Z,18.42
2018-05-03T03:59:10.374Z,19.42
2018-05-03T04:00:15.728Z,21.62
2018-05-03T04:01:21.017Z,16.65
2018-05-03T04:02:26.132Z,18.80
2018-05-03T04:03:31.315Z,15.98
2018-05-03T04:04:36.588Z,16.23
2018-05-03T04:05:41.734Z,18.20
2018-05-03T04:06:46.988Z,16.20
2018-05-03T04:07:52.133Z,15.77
2018-05-03T04:08:57.313Z,14.77
2018-05-03T04:10:03.405Z,15.40
2018-05-03T04:11:08.524Z,13.57
2018-05-03T04:12:13.732Z,16.20
2018-05-03T04:13:19.036Z,17.90
2018-05-03T04:14:24.629Z,19.70
2018-05-03T04:15:29.820Z,16.65
2018-05-03T04:16:35.010Z,22.05
2018-05-03T04:17:48.435Z,13.82
2018-05-03T04:20:01.307Z,16.80
2018-05-03T04:21:11.796Z,19.00
2018-05-03T04:23:20.945Z,18.60
2018-05-03T04:26:35.010Z,20.12
2018-05-03T04:27:40.450Z,14.52
2018-05-03T04:28:45.705Z,20.52
2018-05-03T04:29:50.972Z,17.85
2018-05-03T04:30:56.086Z,18.33
2018-05-03T04:32:01.232Z,21.27
2018-05-03T04:33:06.431Z,15.15
2018-05-03T04:34:11.531Z,18.05
2018-05-03T04:35:16.621Z,17.30
2018-05-03T04:36:21.736Z,15.30
2018-05-03T04:37:26.857Z,12.43
2018-05-03T04:38:32.019Z,14.50
2018-05-03T04:39:37.353Z,17.27
2018-05-03T04:40:42.569Z,13.57
2018-05-03T04:41:47.698Z,17.37
2018-05-03T04:42:52.853Z,14.38
2018-05-03T04:43:57.979Z,13.57
2018-05-03T04:45:03.175Z,13.93
2018-05-03T04:46:08.308Z,12.23
2018-05-03T04:47:13.495Z,13.30
2018-05-03T04:48:18.605Z,14.57
2018-05-03T04:49:24.027Z,13.45
2018-05-03T04:50:29.266Z,17.73
2018-05-03T04:51:34.476Z,15.52
2018-05-03T04:52:39.699Z,12.98
2018-05-03T04:53:44.999Z,13.40
2018-05-03T04:54:50.220Z,13.55
2018-05-03T04:55:55.410Z,14.50
2018-05-03T04:57:07.757Z,16.30
2018-05-03T04:58:18.782Z,9.57
2018-05-03T04:59:24.123Z,15.23
2018-05-03T05:00:29.233Z,14.60
2018-05-03T05:01:34.345Z,11.97
2018-05-03T05:02:39.419Z,10.25
2018-05-03T05:03:44.660Z,15.55
2018-05-03T05:04:49.907Z,13.73
2018-05-03T05:06:08.840Z,16.30
2018-05-03T05:07:13.939Z,14.35
2018-05-03T05:08:19.257Z,13.68
2018-05-03T05:09:25.833Z,10.30
2018-05-03T05:10:32.585Z,12.23
2018-05-03T05:11:37.830Z,13.25
2018-05-03T05:12:43.153Z,11.73
2018-05-03T05:15:13.504Z,7.35
2018-05-03T05:16:18.765Z,18.02
2018-05-03T05:17:23.906Z,15.65
2018-05-03T05:18:29.536Z,16.25
2018-05-03T05:19:34.892Z,19.30
2018-05-03T05:20:40.040Z,11.13
2018-05-03T05:21:45.207Z,14.80
2018-05-03T05:22:50.408Z,13.00
2018-05-03T05:23:55.604Z,13.02
2018-05-03T05:25:00.821Z,14.43
2018-05-03T05:26:06.027Z,12.68
2018-05-03T05:27:11.239Z,10.10
2018-05-03T05:28:16.496Z,10.15
2018-05-03T05:29:21.752Z,14.60
2018-05-03T05:30:26.989Z,10.70
2018-05-03T05:31:33.821Z,13.10
2018-05-03T05:32:38.959Z,16.17
2018-05-03T05:33:44.368Z,18.48
2018-05-03T05:34:49.688Z,11.18
2018-05-03T05:35:54.782Z,10.48
2018-05-03T05:36:59.902Z,15.13
2018-05-03T05:38:05.072Z,16.30
2018-05-03T05:39:10.204Z,11.73
2018-05-03T05:40:15.371Z,11.63
2018-05-03T05:41:20.551Z,8.77
2018-05-03T05:42:25.791Z,17.98
2018-05-03T05:43:31.016Z,13.62
2018-05-03T05:44:36.231Z,15.23
2018-05-03T05:45:41.477Z,11.70
2018-05-03T05:46:46.685Z,15.38
2018-05-03T05:47:51.864Z,15.18
2018-05-03T05:48:57.095Z,17.10
2018-05-03T05:50:02.312Z,22.13
2018-05-03T05:51:20.477Z,14.35
2018-05-03T05:52:26.540Z,16.87
2018-05-03T05:53:31.988Z,18.60
2018-05-03T05:54:37.316Z,16.55
2018-05-03T05:55:42.645Z,21.30
2018-05-03T05:56:48.236Z,19.70
2018-05-03T05:57:53.670Z,15.27
2018-05-03T05:58:59.046Z,16.67
2018-05-03T06:00:04.476Z,13.00
2018-05-03T06:01:09.611Z,23.65
2018-05-03T06:02:14.778Z,13.25
2018-05-03T06:03:20.328Z,16.27
2018-05-03T06:04:25.510Z,21.33
2018-05-03T06:05:30.841Z,15.85
2018-05-03T06:06:35.968Z,26.42
2018-05-03T06:07:42.092Z,22.33
2018-05-03T06:08:47.448Z,19.42
2018-05-03T06:09:53.080Z,24.27
2018-05-03T06:10:58.613Z,17.20
2018-05-03T06:12:04.017Z,15.68
2018-05-03T06:13:09.281Z,19.63
2018-05-03T06:14:14.612Z,13.40
2018-05-03T06:15:20.460Z,16.85
2018-05-03T06:16:25.792Z,15.77
2018-05-03T06:17:31.469Z,17.10
2018-05-03T06:18:36.855Z,14.60
2018-05-03T06:19:42.215Z,19.98
2018-05-03T06:20:47.960Z,16.02
2018-05-03T06:21:53.882Z,17.33
2018-05-03T06:22:59.311Z,17.30
2018-05-03T06:24:04.743Z,13.00
2018-05-03T06:25:09.960Z,13.20
2018-05-03T06:26:15.722Z,18.77
2018-05-03T06:27:20.964Z,15.85
2018-05-03T06:28:26.389Z,13.13
2018-05-03T06:29:31.636Z,23.13
2018-05-03T06:30:37.286Z,14.15
2018-05-03T06:31:42.488Z,22.62
2018-05-03T06:32:47.675Z,17.62
2018-05-03T06:33:52.894Z,16.75
2018-05-03T06:34:58.073Z,18.60
2018-05-03T06:36:03.288Z,17.90
2018-05-03T06:37:08.454Z,15.63
2018-05-03T06:38:13.669Z,15.15
2018-05-03T06:39:18.802Z,12.05
2018-05-03T06:40:24.155Z,17.58
2018-05-03T06:41:29.315Z,13.10
2018-05-03T06:42:34.431Z,15.17
2018-05-03T06:43:39.575Z,19.37
2018-05-03T06:44:44.663Z,15.47
2018-05-03T06:45:49.781Z,18.27
2018-05-03T06:46:54.902Z,13.15
2018-05-03T06:47:59.979Z,11.82
2018-05-03T06:49:05.240Z,16.70
2018-05-03T06:50:10.448Z,21.17
2018-05-03T06:51:17.109Z,14.00
2018-05-03T06:52:26.454Z,11.52
2018-05-03T06:53:53.142Z,12.98
2018-05-03T06:54:58.329Z,17.65
2018-05-03T06:56:03.555Z,8.00
2018-05-03T06:57:09.115Z,14.32
2018-05-03T06:58:14.703Z,11.05
2018-05-03T06:59:19.914Z,15.23
2018-05-03T07:00:25.088Z,14.80
2018-05-03T07:01:30.525Z,18.90
2018-05-03T07:02:35.750Z,14.13
2018-05-03T07:03:41.357Z,19.20
2018-05-03T07:04:46.484Z,16.67
2018-05-03T07:05:51.593Z,17.05
2018-05-03T07:06:56.859Z,17.33
2018-05-03T07:08:02.044Z,17.70
2018-05-03T07:09:07.321Z,14.93
2018-05-03T07:10:12.877Z,14.50
2018-05-03T07:11:18.086Z,13.30
2018-05-03T07:12:23.275Z,17.80
2018-05-03T07:13:28.497Z,14.57
2018-05-03T07:14:33.723Z,16.10
2018-05-03T07:15:39.232Z,28.55
2018-05-03T07:16:44.417Z,21.98
2018-05-03T07:17:49.595Z,22.58
2018-05-03T07:18:54.773Z,19.75
2018-05-03T07:19:59.952Z,15.73
2018-05-03T07:21:05.247Z,19.60
2018-05-03T07:22:10.460Z,14.38
2018-05-03T07:23:15.641Z,15.18
2018-05-03T07:24:20.843Z,17.85
2018-05-03T07:25:26.156Z,16.08
2018-05-03T07:26:31.310Z,18.80
2018-05-03T07:27:36.712Z,17.23
2018-05-03T07:28:41.857Z,17.55
2018-05-03T07:29:46.969Z,19.33
2018-05-03T07:30:52.132Z,15.57
2018-05-03T07:31:58.657Z,13.40
2018-05-03T07:33:07.347Z,19.65
2018-05-03T07:34:12.519Z,14.93
2018-05-03T07:35:17.685Z,13.88
2018-05-03T07:36:23.741Z,15.18
2018-05-03T07:37:28.840Z,15.45
2018-05-03T07:38:35.580Z,11.55
2018-05-03T07:39:40.787Z,11.20
2018-05-03T07:40:46.266Z,21.00
2018-05-03T07:41:51.613Z,11.35
2018-05-03T07:42:56.817Z,12.73
2018-05-03T07:44:02.078Z,16.95
2018-05-03T07:45:07.288Z,14.43
2018-05-03T07:46:12.625Z,16.17
2018-05-03T07:47:18.262Z,19.60
2018-05-03T07:48:24.312Z,17.23
2018-05-03T07:49:29.666Z,15.65
2018-05-03T07:50:35.034Z,14.75
2018-05-03T07:51:40.313Z,14.02
2018-05-03T07:52:45.553Z,12.35
2018-05-03T07:53:50.748Z,16.75
2018-05-03T07:54:56.504Z,13.27
2018-05-03T07:56:01.825Z,14.05
2018-05-03T07:57:07.105Z,17.83
2018-05-03T07:58:12.483Z,10.38
2018-05-03T07:59:17.626Z,11.80
2018-05-03T08:00:22.793Z,11.83
2018-05-03T08:01:28.071Z,15.13
2018-05-03T08:02:33.299Z,11.73
2018-05-03T08:03:38.488Z,12.45
2018-05-03T08:15:53.296Z,20.50
2018-05-03T08:16:58.524Z,22.00
2018-05-03T08:18:03.822Z,21.40
2018-05-03T08:19:09.050Z,17.45
2018-05-03T08:20:15.065Z,18.90
2018-05-03T08:21:20.467Z,22.55
2018-05-03T08:22:25.688Z,20.80
2018-05-03T08:23:32.573Z,18.62
2018-05-03T08:24:38.075Z,15.00
2018-05-03T08:25:43.412Z,13.73
2018-05-03T08:26:48.877Z,16.85
2018-05-03T08:27:55.352Z,23.27
2018-05-03T08:29:00.573Z,30.05
2018-05-03T08:30:05.847Z,21.48
2018-05-03T08:31:11.120Z,22.65
2018-05-03T08:32:16.724Z,16.62
2018-05-03T08:33:21.911Z,24.12
2018-05-03T08:34:27.255Z,18.17
2018-05-03T08:35:32.892Z,15.20
2018-05-03T08:36:38.197Z,22.52
2018-05-03T08:37:43.720Z,25.98
2018-05-03T08:38:48.935Z,27.57
2018-05-03T08:39:54.437Z,33.03
2018-05-03T08:40:59.670Z,19.90
2018-05-03T08:42:05.587Z,18.23
2018-05-03T08:43:11.090Z,22.13
2018-05-03T08:44:16.245Z,19.73
2018-05-03T08:45:21.601Z,18.50
2018-05-03T08:46:26.887Z,17.67
2018-05-03T08:47:32.174Z,22.42
2018-05-03T08:48:37.293Z,20.92
2018-05-03T08:49:42.573Z,18.20
2018-05-03T08:50:47.817Z,18.70
2018-05-03T08:51:52.992Z,19.67
2018-05-03T08:52:58.096Z,15.93
2018-05-03T08:54:03.336Z,21.77
2018-05-03T08:55:08.595Z,19.83
2018-05-03T08:56:14.190Z,23.45
2018-05-03T08:57:19.674Z,18.50
2018-05-03T08:58:24.800Z,17.48
2018-05-03T08:59:30.969Z,14.75
2018-05-03T09:00:36.221Z,23.67
2018-05-03T09:01:42.112Z,24.02
2018-05-03T09:02:47.372Z,17.25
2018-05-03T09:03:52.652Z,19.25
2018-05-03T09:04:57.961Z,18.83
2018-05-03T09:06:03.313Z,23.27
2018-05-03T09:07:08.787Z,21.65
2018-05-03T09:08:14.812Z,19.12
2018-05-03T09:09:20.210Z,32.28
2018-05-03T09:10:25.521Z,22.10
2018-05-03T09:11:30.707Z,20.40
2018-05-03T09:12:35.996Z,22.87
2018-05-03T09:13:43.560Z,21.10
2018-05-03T09:14:48.882Z,19.10
2018-05-03T09:15:54.227Z,23.60
2018-05-03T09:16:59.457Z,20.67
2018-05-03T09:18:04.690Z,18.05
2018-05-03T09:19:10.706Z,24.17
2018-05-03T09:20:16.006Z,16.25
2018-05-03T09:21:21.449Z,23.92
2018-05-03T09:22:26.922Z,20.30
2018-05-03T09:23:32.570Z,22.75
2018-05-03T09:24:37.895Z,20.15
2018-05-03T09:25:43.199Z,19.60
2018-05-03T09:26:48.422Z,18.83
2018-05-03T09:27:53.892Z,19.95
2018-05-03T09:28:59.232Z,19.55
2018-05-03T09:30:04.530Z,27.05
2018-05-03T09:31:09.901Z,31.08
2018-05-03T09:32:15.144Z,23.12
2018-05-03T09:33:20.284Z,69.18
2018-05-03T09:34:25.550Z,43.17
2018-05-03T09:35:30.728Z,63.45
2018-05-03T09:36:35.873Z,56.58
2018-05-03T09:37:41.066Z,74.60
2018-05-03T09:38:46.272Z,39.72
2018-05-03T09:39:51.414Z,34.40
2018-05-03T09:40:56.703Z,41.58
2018-05-03T09:42:01.890Z,44.22
2018-05-03T09:43:07.469Z,53.53
2018-05-03T09:44:12.632Z,32.10
2018-05-03T09:45:17.767Z,33.65
2018-05-03T09:46:22.903Z,24.70
2018-05-03T09:47:28.092Z,21.97
2018-05-03T09:48:33.214Z,26.50
2018-05-03T09:49:38.701Z,19.40
2018-05-03T09:50:43.810Z,20.48
2018-05-03T09:51:48.929Z,13.27
2018-05-03T09:52:54.066Z,18.50
2018-05-03T09:53:59.217Z,16.00
2018-05-03T09:55:04.709Z,16.10
2018-05-03T09:56:09.831Z,13.27
2018-05-03T09:57:14.956Z,13.77
2018-05-03T09:58:20.153Z,13.52
2018-05-03T09:59:25.447Z,11.57
2018-05-03T10:00:30.555Z,9.63
2018-05-03T10:01:35.677Z,15.30
2018-05-03T10:02:40.761Z,11.32
2018-05-03T10:03:45.943Z,14.20
2018-05-03T10:04:51.409Z,7.07
2018-05-03T10:05:56.665Z,14.38
2018-05-03T10:07:02.149Z,9.02
2018-05-03T10:08:07.388Z,10.65
2018-05-03T10:09:12.589Z,7.70
2018-05-03T10:10:17.814Z,10.70
2018-05-03T10:11:22.999Z,11.65
2018-05-03T10:12:28.176Z,14.15
2018-05-03T10:13:34.046Z,8.75
2018-05-03T10:14:49.516Z,5.57
2018-05-03T10:16:14.902Z,11.85
2018-05-03T10:17:24.480Z,12.00
2018-05-03T10:18:30.036Z,10.32
2018-05-03T10:19:36.341Z,12.40
2018-05-03T10:20:41.843Z,12.10
2018-05-03T10:21:47.146Z,11.90
2018-05-03T10:22:53.342Z,14.80
2018-05-03T10:23:58.573Z,10.00
2018-05-03T10:25:03.945Z,14.35
2018-05-03T10:26:09.404Z,8.57
2018-05-03T10:27:14.766Z,10.68
2018-05-03T10:28:20.001Z,10.38
2018-05-03T10:29:25.245Z,10.65
2018-05-03T10:30:30.546Z,9.85
2018-05-03T10:31:35.776Z,12.40
2018-05-03T10:32:41.080Z,10.32
2018-05-03T10:33:46.670Z,8.73
2018-05-03T10:34:53.509Z,5.22
2018-05-03T10:35:58.798Z,16.52
2018-05-03T10:37:04.041Z,7.62
2018-05-03T10:38:09.171Z,5.30
2018-05-03T10:39:14.838Z,7.65
2018-05-03T10:40:19.957Z,9.73
2018-05-03T10:41:26.111Z,6.82
2018-05-03T10:42:31.566Z,9.38
2018-05-03T10:43:36.716Z,13.40
2018-05-03T10:44:41.862Z,10.18
2018-05-03T10:45:47.198Z,6.28
2018-05-03T10:46:52.493Z,7.57
2018-05-03T10:47:57.611Z,10.70
2018-05-03T10:49:03.379Z,8.40
2018-05-03T10:50:08.504Z,7.35
2018-05-03T10:51:13.763Z,7.00
2018-05-03T10:52:20.584Z,7.32
2018-05-03T10:53:25.821Z,6.47
2018-05-03T10:54:31.748Z,11.35
2018-05-03T10:55:36.986Z,11.82
2018-05-03T10:56:42.308Z,9.43
2018-05-03T10:57:47.483Z,5.45
2018-05-03T10:58:52.616Z,10.63
2018-05-03T10:59:57.950Z,11.57
2018-05-03T11:01:03.218Z,8.90
2018-05-03T11:02:08.815Z,8.57
2018-05-03T11:03:13.958Z,9.52
2018-05-03T11:04:19.292Z,7.03
2018-05-03T11:05:24.620Z,8.23
2018-05-03T11:06:29.889Z,13.05
2018-05-03T11:07:35.381Z,8.05
2018-05-03T11:08:40.634Z,10.18
2018-05-03T11:09:45.776Z,8.40
2018-05-03T11:10:50.995Z,10.45
2018-05-03T11:11:56.091Z,10.20
2018-05-03T11:13:01.816Z,10.15
2018-05-03T11:14:07.511Z,8.70
2018-05-03T11:15:12.793Z,11.77
2018-05-03T11:16:17.977Z,9.15
2018-05-03T11:17:23.214Z,13.45
2018-05-03T11:18:28.385Z,11.02
2018-05-03T11:19:33.531Z,11.00
2018-05-03T11:20:39.679Z,10.73
2018-05-03T11:21:44.967Z,16.17
2018-05-03T11:22:50.286Z,14.00
2018-05-03T11:23:56.208Z,12.82
2018-05-03T11:25:01.927Z,13.18
2018-05-03T11:26:07.219Z,9.73
2018-05-03T11:27:12.695Z,10.65
2018-05-03T11:28:17.981Z,18.55
2018-05-03T11:29:23.574Z,44.50
2018-05-03T11:30:29.255Z,32.00
2018-05-03T11:31:34.607Z,37.10
2018-05-03T11:32:39.927Z,29.52
2018-05-03T11:33:45.089Z,35.97
2018-05-03T11:34:50.218Z,39.42
2018-05-03T11:35:55.705Z,16.17
2018-05-03T11:37:03.081Z,18.03
2018-05-03T11:38:11.125Z,14.63
2018-05-03T11:39:21.289Z,16.42
2018-05-03T11:40:30.791Z,10.77
2018-05-03T11:41:36.128Z,20.92
2018-05-03T11:42:43.083Z,19.23
2018-05-03T11:43:49.828Z,26.12
2018-05-03T11:44:56.835Z,42.42
2018-05-03T11:46:03.658Z,38.83
2018-05-03T11:47:10.257Z,41.58
2018-05-03T11:48:16.126Z,77.47
2018-05-03T11:49:35.521Z,61.42
2018-05-03T11:50:40.872Z,36.75
2018-05-03T11:51:46.116Z,20.35
2018-05-03T11:52:51.474Z,26.73
2018-05-03T11:53:56.957Z,13.73
2018-05-03T11:55:02.190Z,30.55
2018-05-03T11:56:07.612Z,47.33
2018-05-03T11:57:12.890Z,33.38
2018-05-03T11:58:18.284Z,30.37
2018-05-03T11:59:24.101Z,27.08
2018-05-03T12:00:31.711Z,20.33
2018-05-03T12:01:37.026Z,25.30
2018-05-03T12:02:42.267Z,25.35
2018-05-03T12:03:47.480Z,15.60
2018-05-03T12:04:52.843Z,12.07
2018-05-03T12:05:58.592Z,9.90
2018-05-03T12:07:03.914Z,12.25
2018-05-03T12:08:09.107Z,19.55
2018-05-03T12:09:14.214Z,31.55
2018-05-03T12:10:19.385Z,13.68
2018-05-03T12:11:24.765Z,21.55
2018-05-03T12:12:30.219Z,32.42
2018-05-03T12:13:35.607Z,53.97
2018-05-03T12:14:40.757Z,34.22
2018-05-03T12:15:45.903Z,29.63
2018-05-03T12:16:51.020Z,15.90
2018-05-03T12:17:56.231Z,22.75
2018-05-03T12:19:01.665Z,9.43
2018-05-03T12:20:06.978Z,21.25
2018-05-03T12:21:12.275Z,33.55
2018-05-03T12:22:18.768Z,34.70
2018-05-03T12:23:24.581Z,25.37
2018-05-03T12:24:29.889Z,17.70
2018-05-03T12:25:35.243Z,28.05
2018-05-03T12:26:40.460Z,21.27
2018-05-03T12:27:45.738Z,24.77
2018-05-03T12:28:51.205Z,27.23
2018-05-03T12:29:56.563Z,18.70
2018-05-03T12:31:01.801Z,26.17
2018-05-03T12:32:07.087Z,15.00
2018-05-03T12:33:12.289Z,16.62
2018-05-03T12:34:17.503Z,28.87
2018-05-03T12:35:22.714Z,25.95
2018-05-03T12:36:27.976Z,22.90
2018-05-03T12:37:34.138Z,15.40
2018-05-03T12:38:39.360Z,19.60
2018-05-03T12:39:45.400Z,11.40
2018-05-03T12:40:50.571Z,16.37
2018-05-03T12:41:55.905Z,12.60
2018-05-03T12:43:01.339Z,11.85
2018-05-03T12:44:06.577Z,12.73
2018-05-03T12:45:11.905Z,14.30
2018-05-03T12:46:17.041Z,6.28
2018-05-03T12:47:22.168Z,11.73
2018-05-03T12:48:27.350Z,10.48
2018-05-03T12:49:32.525Z,11.12
2018-05-03T12:50:37.698Z,20.62
2018-05-03T12:51:42.842Z,10.85
2018-05-03T12:52:48.079Z,19.92
2018-05-03T12:53:54.225Z,15.05
2018-05-03T12:54:59.547Z,15.60
2018-05-03T12:56:04.723Z,18.77
2018-05-03T12:57:09.911Z,12.75
2018-05-03T12:58:15.023Z,8.10
2018-05-03T12:59:20.144Z,10.05
2018-05-03T13:00:25.327Z,10.10
2018-05-03T13:01:30.488Z,12.30
2018-05-03T13:02:35.613Z,11.83
2018-05-03T13:03:40.734Z,12.07
2018-05-03T13:04:46.271Z,7.37
2018-05-03T13:05:51.951Z,8.70
2018-05-03T13:06:57.215Z,18.60
2018-05-03T13:08:02.443Z,44.38
2018-05-03T13:09:07.844Z,31.05
2018-05-03T13:10:13.584Z,41.65
2018-05-03T13:11:18.795Z,28.95
2018-05-03T13:12:24.024Z,28.45
2018-05-03T13:13:29.229Z,23.38
2018-05-03T13:14:34.475Z,46.60
2018-05-03T13:15:39.604Z,39.67
2018-05-03T13:16:44.763Z,27.17
2018-05-03T13:17:49.944Z,14.38
2018-05-03T13:18:55.100Z,18.42
2018-05-03T13:20:00.275Z,9.55
2018-05-03T13:21:05.701Z,21.23
2018-05-03T13:22:10.884Z,10.77
2018-05-03T13:23:16.072Z,13.90
2018-05-03T13:24:23.444Z,13.27
2018-05-03T13:25:31.187Z,10.25
2018-05-03T13:26:36.518Z,12.13
2018-05-03T13:27:42.170Z,12.70
2018-05-03T13:28:47.383Z,9.95
2018-05-03T13:29:52.613Z,12.98
2018-05-03T13:30:57.851Z,11.07
2018-05-03T13:32:03.100Z,14.07
2018-05-03T13:33:08.571Z,13.30
2018-05-03T13:34:13.752Z,10.90
2018-05-03T13:35:19.087Z,9.02
2018-05-03T13:36:24.318Z,12.52
2018-05-03T13:37:29.526Z,12.18
2018-05-03T13:38:34.749Z,8.13
2018-05-03T13:39:40.217Z,8.00
2018-05-03T13:40:45.537Z,11.93
2018-05-03T13:41:50.720Z,10.82
2018-05-03T13:42:56.060Z,10.00
2018-05-03T13:44:01.263Z,11.30
2018-05-03T13:45:06.452Z,5.90
2018-05-03T13:46:11.689Z,9.70
2018-05-03T13:47:16.958Z,7.37
2018-05-03T13:48:22.177Z,7.10
2018-05-03T13:49:27.437Z,6.70
2018-05-03T13:50:32.795Z,10.80
2018-05-03T13:51:38.273Z,8.07
2018-05-03T13:52:43.493Z,8.57
2018-05-03T13:53:48.743Z,7.45
2018-05-03T13:54:54.035Z,10.55
2018-05-03T13:55:59.148Z,9.35
2018-05-03T13:57:04.283Z,20.98
2018-05-03T13:58:09.730Z,61.63
2018-05-03T13:59:14.863Z,17.15
2018-05-03T14:00:20.070Z,40.40
2018-05-03T14:01:25.268Z,34.75
2018-05-03T14:02:30.394Z,35.85
2018-05-03T14:03:35.803Z,16.20
2018-05-03T14:04:40.986Z,11.98
2018-05-03T14:05:46.202Z,15.80
2018-05-03T14:06:51.452Z,48.67
2018-05-03T14:07:56.625Z,34.33
2018-05-03T14:09:01.759Z,23.90
2018-05-03T14:10:06.906Z,21.50
2018-05-03T14:11:12.045Z,19.50
2018-05-03T14:12:17.197Z,13.00
2018-05-03T14:13:22.437Z,18.42
2018-05-03T14:14:27.687Z,21.00
2018-05-03T14:15:33.872Z,15.43
2018-05-03T14:16:47.629Z,13.20
2018-05-03T14:17:53.873Z,14.50
2018-05-03T14:18:59.179Z,16.27
2018-05-03T14:20:04.716Z,14.52
2018-05-03T14:21:10.270Z,16.10
2018-05-03T14:22:15.894Z,10.15
2018-05-03T14:23:21.249Z,12.82
2018-05-03T14:24:26.420Z,15.50
2018-05-03T14:25:32.467Z,11.98
2018-05-03T14:26:45.404Z,13.70
2018-05-03T14:27:50.852Z,10.27
2018-05-03T14:28:56.698Z,9.98
2018-05-03T14:30:03.081Z,9.07
2018-05-03T14:31:08.579Z,10.98
2018-05-03T14:32:13.745Z,8.23
2018-05-03T14:33:18.971Z,6.87
2018-05-03T14:34:24.362Z,13.30
2018-05-03T14:35:29.532Z,8.10
2018-05-03T14:36:34.677Z,7.90
2018-05-03T14:37:39.895Z,8.57
2018-05-03T14:38:45.061Z,6.43
2018-05-03T14:39:50.236Z,12.00
2018-05-03T14:40:55.419Z,7.93
2018-05-03T14:42:00.700Z,8.15
2018-05-03T14:43:06.037Z,14.50
2018-05-03T14:44:11.273Z,12.65
2018-05-03T14:45:16.626Z,11.05
2018-05-03T14:46:21.912Z,9.93
2018-05-03T14:47:27.282Z,17.50
2018-05-03T14:48:32.562Z,18.62
2018-05-03T14:49:37.761Z,83.97
2018-05-03T14:50:42.986Z,23.85